Time;durP1;ratioP1;P1;durP2;ratioP2;P2;SDS_P1;SDS_P2;PMS_P1;PMS_P2;Temp;Humidity;BMP_temperature;BMP_pressure;BME280_temperature;BME280_humidity;BME280_pressure;Samples;Min_cycle;Max_cycle;Signal;HPM_P1;HPM_P2
2022/07/05 00:00:49;;;;;;;;;;;;;;;21.73;88.44;153116.97;1684093;85;22000;-61
2022/07/05 00:03:16;;;;;;;;;;;;;;;21.72;88.36;153115.63;1684260;84;20183;-62
2022/07/05 00:05:43;;;;;;;;;;;;;;;21.71;88.23;153113.02;1684040;85;20172;-61
2022/07/05 00:08:09;;;;;;;;;;;;;;;21.68;88.17;153105.19;1683910;85;20452;-62
2022/07/05 00:10:38;;;;;;;;;;;;;;;21.65;88.34;153096.02;1689040;84;20223;-62
2022/07/05 00:13:06;;;;;;;;;;;;;;;21.63;88.53;153092.06;1696494;84;21270;-61
2022/07/05 00:15:33;;;;;;;;;;;;;;;21.63;88.40;153092.06;1696304;84;20444;-62
2022/07/05 00:18:00;;;;;;;;;;;;;;;21.61;88.42;153088.13;1696385;84;20456;-62
2022/07/05 00:20:26;;;;;;;;;;;;;;;21.60;88.53;153084.23;1689535;84;20448;-62
2022/07/05 00:22:53;;;;;;;;;;;;;;;21.58;88.42;153080.28;1685042;85;20175;-61
2022/07/05 00:25:20;;;;;;;;;;;;;;;21.57;88.22;153076.39;1684735;85;21147;-61
2022/07/05 00:27:46;;;;;;;;;;;;;;;21.55;88.19;153071.13;1684650;85;20132;-61
2022/07/05 00:30:14;;;;;;;;;;;;;;;21.55;88.25;153071.13;1684702;85;32453;-62
2022/07/05 00:32:41;;;;;;;;;;;;;;;21.55;88.23;153071.13;1684536;85;20187;-62
2022/07/05 00:35:09;;;;;;;;;;;;;;;21.56;88.05;153073.78;1684821;85;20234;-62
2022/07/05 00:37:36;;;;;;;;;;;;;;;21.53;87.99;153067.22;1685064;83;22204;-62
2022/07/05 00:40:04;;;;;;;;;;;;;;;21.51;87.91;153060.67;1684957;84;20180;-62
2022/07/05 00:42:31;;;;;;;;;;;;;;;21.49;87.91;153055.45;1684886;85;20141;-62
2022/07/05 00:44:58;;;;;;;;;;;;;;;21.47;88.05;153052.83;1684989;85;20204;-62
2022/07/05 00:47:25;;;;;;;;;;;;;;;21.49;88.14;153055.45;1684970;85;20208;-62
2022/07/05 00:49:51;;;;;;;;;;;;;;;21.45;88.07;153047.61;1685420;85;21237;-60
2022/07/05 00:52:18;;;;;;;;;;;;;;;21.41;88.18;153037.16;1684993;85;20294;-63
2022/07/05 00:54:45;;;;;;;;;;;;;;;21.39;88.43;153030.61;1685099;85;20306;-61
2022/07/05 00:57:11;;;;;;;;;;;;;;;21.35;88.69;153020.16;1684954;85;20197;-61
2022/07/05 00:59:38;;;;;;;;;;;;;;;21.37;88.85;153026.72;1685096;85;20145;-61
2022/07/05 01:02:05;;;;;;;;;;;;;;;21.39;88.73;153031.94;1684938;85;21265;-61
2022/07/05 01:04:32;;;;;;;;;;;;;;;21.39;88.63;153031.94;1684934;85;20435;-61
2022/07/05 01:06:58;;;;;;;;;;;;;;;21.39;88.58;153031.94;1685109;85;20179;-61
2022/07/05 01:09:25;;;;;;;;;;;;;;;21.39;88.55;153030.61;1684953;85;20504;-61
2022/07/05 01:11:52;;;;;;;;;;;;;;;21.37;88.44;153025.38;1686347;85;20201;-61
2022/07/05 01:14:20;;;;;;;;;;;;;;;21.39;88.65;153030.61;1686551;85;21276;-61
2022/07/05 01:16:49;;;;;;;;;;;;;;;21.43;88.58;153041.06;1686811;85;20162;-61
2022/07/05 01:19:17;;;;;;;;;;;;;;;21.47;88.29;153052.83;1686013;83;20207;-62
2022/07/05 01:21:44;;;;;;;;;;;;;;;21.51;87.92;153060.67;1682022;84;20174;-61
2022/07/05 01:24:13;;;;;;;;;;;;;;;21.50;87.56;153058.06;1699742;84;20348;-62
2022/07/05 01:26:40;;;;;;;;;;;;;;;21.46;87.47;153050.22;1699900;84;21310;-62
2022/07/05 01:29:09;;;;;;;;;;;;;;;21.41;87.47;153037.16;1699825;83;20114;-61
2022/07/05 01:31:39;;;;;;;;;;;;;;;21.38;87.92;153029.33;1699934;83;20170;-62
2022/07/05 01:34:06;;;;;;;;;;;;;;;21.34;88.23;153018.88;1699940;83;20118;-62
2022/07/05 01:36:34;;;;;;;;;;;;;;;21.29;88.34;153005.78;1699747;83;20154;-62
2022/07/05 01:39:01;;;;;;;;;;;;;;;21.25;88.75;152996.66;1699985;83;21241;-61
2022/07/05 01:41:28;;;;;;;;;;;;;;;21.27;88.77;153000.55;1699647;84;20773;-62
2022/07/05 01:43:55;;;;;;;;;;;;;;;21.27;88.64;153000.55;1699856;84;20200;-62
2022/07/05 01:46:23;;;;;;;;;;;;;;;21.27;88.51;153000.55;1699853;83;20411;-62
2022/07/05 01:48:51;;;;;;;;;;;;;;;21.28;88.25;153004.50;1699700;83;20284;-62
2022/07/05 01:51:22;;;;;;;;;;;;;;;21.27;87.85;153000.55;1699802;84;21250;-62
2022/07/05 01:53:51;;;;;;;;;;;;;;;21.23;87.81;152991.42;1700263;84;20218;-62
2022/07/05 01:56:18;;;;;;;;;;;;;;;21.22;87.56;152988.81;1699838;83;20158;-62
2022/07/05 01:58:45;;;;;;;;;;;;;;;21.21;87.48;152984.88;1699855;84;20264;-62
2022/07/05 02:01:12;;;;;;;;;;;;;;;21.18;87.59;152979.66;1699900;84;20462;-62
2022/07/05 02:03:39;;;;;;;;;;;;;;;21.17;87.70;152977.05;1699711;83;21075;-62
2022/07/05 02:06:08;;;;;;;;;;;;;;;21.17;87.88;152975.70;1699952;83;20418;-62
2022/07/05 02:08:35;;;;;;;;;;;;;;;21.14;87.92;152967.88;1699966;83;20142;-62
2022/07/05 02:11:04;;;;;;;;;;;;;;;21.13;88.08;152966.59;1691581;84;20516;-62
2022/07/05 02:13:31;;;;;;;;;;;;;;;21.10;88.03;152958.70;1684976;85;20227;-62
2022/07/05 02:15:58;;;;;;;;;;;;;;;21.08;88.08;152953.48;1656017;85;21253;-62
2022/07/05 02:18:25;;;;;;;;;;;;;;;21.07;88.05;152950.88;1685084;85;20200;-62
2022/07/05 02:20:53;;;;;;;;;;;;;;;21.08;88.06;152953.48;1695241;83;20190;-62
2022/07/05 02:23:20;;;;;;;;;;;;;;;21.10;87.90;152958.70;1704709;84;20309;-62
2022/07/05 02:25:47;;;;;;;;;;;;;;;21.12;87.83;152963.98;1705028;84;20486;-62
2022/07/05 02:28:15;;;;;;;;;;;;;;;21.16;87.76;152974.42;1704657;84;21132;-62
2022/07/05 02:30:44;;;;;;;;;;;;;;;21.23;87.28;152990.09;1704906;84;20147;-62
2022/07/05 02:33:10;;;;;;;;;;;;;;;21.32;86.98;153013.61;1705010;84;20506;-62
2022/07/05 02:35:37;;;;;;;;;;;;;;;21.43;86.51;153042.39;1705230;84;20528;-62
2022/07/05 02:38:04;;;;;;;;;;;;;;;21.55;86.04;153072.45;1705169;84;20173;-62
2022/07/05 02:40:31;;;;;;;;;;;;;;;21.65;85.53;153097.34;1704984;84;21243;-62
2022/07/05 02:42:59;;;;;;;;;;;;;;;21.76;84.99;153124.80;1705009;84;20191;-63
2022/07/05 02:45:26;;;;;;;;;;;;;;;21.85;84.36;153148.31;1705069;83;20177;-63
2022/07/05 02:47:55;;;;;;;;;;;;;;;21.94;84.04;153170.55;1704913;83;20222;-62
2022/07/05 02:50:22;;;;;;;;;;;;;;;22.01;83.66;153188.89;1704968;84;20269;-63
2022/07/05 02:52:49;;;;;;;;;;;;;;;22.08;83.43;153204.56;1705202;84;21783;-62
2022/07/05 02:55:18;;;;;;;;;;;;;;;22.12;83.11;153216.34;1705033;84;20202;-62
2022/07/05 02:57:45;;;;;;;;;;;;;;;22.15;82.85;153222.86;1706564;84;20213;-63
2022/07/05 03:00:14;;;;;;;;;;;;;;;22.20;82.51;153235.92;1704908;84;20437;-61
2022/07/05 03:02:42;;;;;;;;;;;;;;;22.24;82.18;153246.44;1705165;84;20170;-61
2022/07/05 03:05:11;;;;;;;;;;;;;;;22.30;81.66;153262.11;1704925;84;20434;-60
2022/07/05 03:07:39;;;;;;;;;;;;;;;22.40;81.31;153285.62;1704649;84;20135;-62
2022/07/05 03:10:07;;;;;;;;;;;;;;;22.50;81.04;153310.53;1694241;84;20203;-62
2022/07/05 03:12:34;;;;;;;;;;;;;;;22.59;80.48;153334.11;1704935;84;20495;-62
2022/07/05 03:15:02;;;;;;;;;;;;;;;22.70;79.95;153361.58;1704965;84;20214;-62
2022/07/05 03:17:29;;;;;;;;;;;;;;;22.77;79.26;153379.88;1705031;84;21451;-61
2022/07/05 03:19:55;;;;;;;;;;;;;;;22.83;78.73;153395.56;1705284;84;20190;-62
2022/07/05 03:22:23;;;;;;;;;;;;;;;22.91;78.54;153415.19;1704898;83;20185;-61
2022/07/05 03:24:50;;;;;;;;;;;;;;;23.02;78.20;153444.00;1704765;84;20966;-62
2022/07/05 03:27:16;;;;;;;;;;;;;;;23.12;77.57;153468.88;1705014;84;20166;-62
2022/07/05 03:29:46;;;;;;;;;;;;;;;23.19;77.04;153485.84;1705279;84;20145;-62
2022/07/05 03:32:13;;;;;;;;;;;;;;;23.27;76.62;153505.53;1704949;84;20466;-61
2022/07/05 03:34:40;;;;;;;;;;;;;;;23.34;76.45;153523.88;1704790;84;20155;-61
2022/07/05 03:37:07;;;;;;;;;;;;;;;23.46;76.30;153553.98;1704987;84;20193;-61
2022/07/05 03:39:34;;;;;;;;;;;;;;;23.57;76.14;153581.47;1704831;84;20173;-62
2022/07/05 03:42:01;;;;;;;;;;;;;;;23.68;75.89;153610.25;1704730;84;21260;-63
2022/07/05 03:44:32;;;;;;;;;;;;;;;23.81;75.37;153641.69;1704550;84;21177;-62
2022/07/05 03:46:59;;;;;;;;;;;;;;;23.92;75.11;153670.45;1704873;84;20169;-62
2022/07/05 03:49:27;;;;;;;;;;;;;;;24.07;74.76;153707.19;1704845;84;20494;-63
2022/07/05 03:51:54;;;;;;;;;;;;;;;24.19;74.24;153738.58;1705132;84;20130;-63
2022/07/05 03:54:21;;;;;;;;;;;;;;;24.29;73.82;153764.78;1704747;84;20903;-63
2022/07/05 03:56:48;;;;;;;;;;;;;;;24.35;73.39;153777.88;1704878;84;20213;-62
2022/07/05 03:59:15;;;;;;;;;;;;;;;24.42;73.26;153796.19;1705023;84;20185;-62
2022/07/05 04:01:42;;;;;;;;;;;;;;;24.53;73.21;153825.03;1705048;84;20376;-62
2022/07/05 04:04:10;;;;;;;;;;;;;;;24.67;73.02;153859.09;1705005;84;20264;-62
2022/07/05 04:06:37;;;;;;;;;;;;;;;24.83;72.45;153901.03;1704815;84;21248;-63
2022/07/05 04:09:04;;;;;;;;;;;;;;;24.99;71.85;153941.67;1704970;84;20135;-62
2022/07/05 04:11:31;;;;;;;;;;;;;;;25.16;71.56;153983.55;1691487;84;20485;-63
2022/07/05 04:13:58;;;;;;;;;;;;;;;25.32;71.11;154025.48;1687230;85;20203;-63
2022/07/05 04:16:26;;;;;;;;;;;;;;;25.45;70.59;154058.25;1687044;85;20212;-63
2022/07/05 04:18:52;;;;;;;;;;;;;;;25.54;70.29;154080.56;1687341;84;21062;-64
2022/07/05 04:21:20;;;;;;;;;;;;;;;25.64;69.76;154105.47;1686489;84;20239;-63
2022/07/05 04:23:47;;;;;;;;;;;;;;;25.73;69.41;154127.75;1686469;85;20240;-63
2022/07/05 04:26:16;;;;;;;;;;;;;;;25.82;69.07;154150.03;1662893;85;20172;-63
2022/07/05 04:28:44;;;;;;;;;;;;;;;25.89;68.75;154168.37;1686772;84;20447;-63
2022/07/05 04:31:13;;;;;;;;;;;;;;;25.95;68.45;154184.09;1686734;85;21286;-63
2022/07/05 04:33:42;;;;;;;;;;;;;;;26.03;68.42;154205.09;1686148;85;20228;-64
2022/07/05 04:36:10;;;;;;;;;;;;;;;26.14;67.97;154232.63;1686435;85;20219;-64
2022/07/05 04:38:37;;;;;;;;;;;;;;;26.26;67.20;154262.81;1686271;85;20766;-64
2022/07/05 04:41:03;;;;;;;;;;;;;;;26.36;66.61;154286.39;1686398;85;20472;-64
2022/07/05 04:43:33;;;;;;;;;;;;;;;26.47;65.88;154315.27;1686434;85;21269;-64
2022/07/05 04:46:01;;;;;;;;;;;;;;;26.56;65.16;154337.55;1686550;85;20199;-64
2022/07/05 04:48:28;;;;;;;;;;;;;;;26.68;64.92;154369.00;1686431;85;20216;-64
2022/07/05 04:50:55;;;;;;;;;;;;;;;26.79;65.55;154396.53;1686576;85;20231;-64
2022/07/05 04:53:22;;;;;;;;;;;;;;;26.88;65.57;154420.22;1686444;85;20337;-64
2022/07/05 04:55:49;;;;;;;;;;;;;;;26.97;65.54;154441.19;1686397;85;21165;-64
2022/07/05 04:58:15;;;;;;;;;;;;;;;27.06;65.03;154464.77;1695869;83;20183;-64
2022/07/05 05:00:42;;;;;;;;;;;;;;;27.13;64.79;154483.16;1715242;83;20426;-65
2022/07/05 05:03:09;;;;;;;;;;;;;;;27.21;64.51;154501.50;1715074;83;20822;-64
2022/07/05 05:05:35;;;;;;;;;;;;;;;27.35;64.03;154538.25;1715007;83;20201;-64
2022/07/05 05:08:03;;;;;;;;;;;;;;;27.52;63.64;154580.23;1715336;83;21083;-64
2022/07/05 05:10:30;;;;;;;;;;;;;;;27.68;63.21;154620.94;1714822;83;20470;-65
2022/07/05 05:12:56;;;;;;;;;;;;;;;27.81;62.38;154653.75;1714976;83;20129;-64
2022/07/05 05:15:24;;;;;;;;;;;;;;;27.85;62.11;154664.23;1714793;83;20169;-64
2022/07/05 05:17:51;;;;;;;;;;;;;;;27.94;61.57;154686.55;1714947;83;20560;-64
2022/07/05 05:20:18;;;;;;;;;;;;;;;28.01;61.12;154706.23;1714735;83;21226;-64
2022/07/05 05:22:45;;;;;;;;;;;;;;;28.06;61.14;154716.72;1720045;83;20085;-64
2022/07/05 05:25:12;;;;;;;;;;;;;;;28.09;60.89;154724.58;1720482;83;20193;-64
2022/07/05 05:27:46;;;;;;;;;;;;;;;28.08;60.84;154721.97;1720272;83;20410;-64
2022/07/05 05:30:13;;;;;;;;;;;;;;;28.11;60.86;154731.16;1720193;83;20213;-63
2022/07/05 05:32:41;;;;;;;;;;;;;;;28.21;60.76;154756.16;1719996;83;21142;-64
2022/07/05 05:35:08;;;;;;;;;;;;;;;28.36;60.38;154794.20;1720054;83;20200;-64
2022/07/05 05:37:49;;;;;;;;;;;;;;;28.52;59.94;154834.88;1720534;83;20418;-64
2022/07/05 05:40:16;;;;;;;;;;;;;;;28.67;59.59;154871.66;1719371;83;20162;-64
2022/07/05 05:42:43;;;;;;;;;;;;;;;28.79;58.85;154903.17;1720447;83;20142;-64
2022/07/05 05:45:10;;;;;;;;;;;;;;;28.82;58.30;154911.05;1720479;83;21245;-64
2022/07/05 05:47:46;;;;;;;;;;;;;;;28.86;58.03;154920.25;1720441;83;20465;-64
2022/07/05 05:50:13;;;;;;;;;;;;;;;28.92;58.02;154934.70;1716609;83;20213;-64
2022/07/05 05:52:40;;;;;;;;;;;;;;;29.01;57.71;154958.31;1720367;83;20426;-64
2022/07/05 05:55:08;;;;;;;;;;;;;;;29.07;57.42;154974.11;1718877;81;20161;-64
2022/07/05 05:57:36;;;;;;;;;;;;;;;29.14;57.24;154992.47;1722833;81;21100;-64
2022/07/05 06:00:04;;;;;;;;;;;;;;;29.26;56.86;155021.33;1723078;81;20855;-65
2022/07/05 06:02:33;;;;;;;;;;;;;;;29.32;56.42;155037.13;1718180;83;20289;-65
2022/07/05 06:05:04;;;;;;;;;;;;;;;29.34;56.12;155042.38;1724698;81;20469;-65
2022/07/05 06:07:30;;;;;;;;;;;;;;;29.37;56.27;155050.25;1722698;81;20480;-65
2022/07/05 06:09:57;;;;;;;;;;;;;;;29.45;56.12;155071.28;1725016;81;21810;-64
2022/07/05 06:12:24;;;;;;;;;;;;;;;29.57;55.93;155101.48;1723092;81;20460;-64
2022/07/05 06:14:52;;;;;;;;;;;;;;;29.65;55.97;155119.91;1727595;81;20172;-65
2022/07/05 06:17:18;;;;;;;;;;;;;;;29.77;55.65;155150.11;1727655;81;20192;-64
2022/07/05 06:19:46;;;;;;;;;;;;;;;29.87;55.44;155177.69;1728676;81;20134;-65
2022/07/05 06:22:13;;;;;;;;;;;;;;;29.97;55.34;155201.31;1727444;81;21247;-65
2022/07/05 06:24:39;;;;;;;;;;;;;;;30.05;55.20;155221.08;1711850;83;20442;-65
2022/07/05 06:27:06;;;;;;;;;;;;;;;30.13;55.03;155242.08;1721377;82;20512;-65
2022/07/05 06:29:33;;;;;;;;;;;;;;;30.22;54.76;155265.75;1715077;82;20237;-65
2022/07/05 06:32:00;;;;;;;;;;;;;;;30.27;55.06;155278.88;1717577;82;20241;-65
2022/07/05 06:34:26;;;;;;;;;;;;;;;30.37;55.23;155302.50;1715654;82;21250;-65
2022/07/05 06:36:54;;;;;;;;;;;;;;;30.45;54.88;155323.56;1689896;83;20492;-66
2022/07/05 06:39:20;;;;;;;;;;;;;;;30.51;54.69;155339.31;1722545;81;20146;-66
2022/07/05 06:41:47;;;;;;;;;;;;;;;30.59;53.94;155360.31;1721744;82;21180;-66
2022/07/05 06:44:13;;;;;;;;;;;;;;;30.66;54.01;155377.47;1717779;82;20157;-64
2022/07/05 06:46:40;;;;;;;;;;;;;;;30.75;53.69;155399.81;1729402;82;21245;-65
2022/07/05 06:49:07;;;;;;;;;;;;;;;30.82;53.31;155418.19;1726191;82;21137;-63
2022/07/05 06:51:35;;;;;;;;;;;;;;;30.83;52.90;155420.81;1736563;81;20187;-65
2022/07/05 06:54:04;;;;;;;;;;;;;;;30.80;52.59;155411.64;1724463;82;20478;-62
2022/07/05 06:56:31;;;;;;;;;;;;;;;30.76;52.63;155401.14;1725741;81;20183;-62
2022/07/05 06:58:58;;;;;;;;;;;;;;;30.73;52.23;155394.56;1740942;81;21094;-62
2022/07/05 07:01:25;;;;;;;;;;;;;;;30.68;52.32;155382.72;1742475;82;20391;-63
2022/07/05 07:03:52;;;;;;;;;;;;;;;30.63;52.58;155368.30;1719554;82;20191;-63
2022/07/05 07:06:18;;;;;;;;;;;;;;;30.62;52.86;155366.97;1731356;82;20167;-63
2022/07/05 07:11:32;;;;;;;;;;;;;;;30.63;52.06;155368.30;1718281;82;21229;-63
2022/07/05 07:13:58;;;;;;;;;;;;;;;30.60;50.52;155361.66;1734356;82;20318;-63
2022/07/05 07:16:25;;;;;;;;;;;;;;;30.58;49.47;155356.41;1737306;82;20202;-64
2022/07/05 07:18:52;;;;;;;;;;;;;;;30.55;48.86;155349.81;1740258;82;20885;-63
2022/07/05 07:21:19;;;;;;;;;;;;;;;30.54;47.67;155347.19;1733563;82;20205;-63
2022/07/05 07:23:45;;;;;;;;;;;;;;;30.54;46.87;155347.19;1703433;82;21268;-63
2022/07/05 07:26:13;;;;;;;;;;;;;;;30.55;46.86;155349.81;1684412;83;20182;-63
2022/07/05 07:28:40;;;;;;;;;;;;;;;30.56;46.47;155351.16;1699670;84;20591;-63
2022/07/05 07:31:08;;;;;;;;;;;;;;;30.55;46.29;155348.53;1688046;84;20150;-63
2022/07/05 07:33:35;;;;;;;;;;;;;;;30.57;47.07;155353.78;1684654;85;20174;-63
2022/07/05 07:36:01;;;;;;;;;;;;;;;30.59;46.21;155359.03;1709013;81;21258;-63
2022/07/05 07:38:29;;;;;;;;;;;;;;;30.64;45.57;155370.92;1660749;83;20193;-64
2022/07/05 07:40:56;;;;;;;;;;;;;;;30.70;45.37;155386.67;1672827;82;20241;-64
2022/07/05 07:43:22;;;;;;;;;;;;;;;30.76;45.52;155402.44;1694777;84;20177;-63
2022/07/05 07:45:49;;;;;;;;;;;;;;;30.83;45.13;155420.81;1697497;83;20400;-64
2022/07/05 07:48:16;;;;;;;;;;;;;;;30.89;44.44;155434.00;1705994;82;21080;-64
2022/07/05 07:50:43;;;;;;;;;;;;;;;30.96;44.26;155452.38;1671505;84;20204;-65
2022/07/05 07:53:09;;;;;;;;;;;;;;;31.03;44.82;155470.75;1699082;83;20206;-65
2022/07/05 07:55:38;;;;;;;;;;;;;;;31.10;44.71;155487.86;1699706;83;20430;-64
2022/07/05 07:58:07;;;;;;;;;;;;;;;31.18;43.71;155507.58;1696302;83;20202;-64
2022/07/05 08:00:34;;;;;;;;;;;;;;;31.24;43.00;155524.72;1745219;82;21898;-63
2022/07/05 08:03:00;;;;;;;;;;;;;;;31.28;42.44;155535.23;1745102;81;20185;-64
2022/07/05 08:05:29;;;;;;;;;;;;;;;31.33;42.55;155547.08;1741535;81;20200;-63
2022/07/05 08:07:56;;;;;;;;;;;;;;;31.34;42.69;155549.70;1695046;84;20205;-63
2022/07/05 08:10:23;;;;;;;;;;;;;;;31.30;38.62;155540.48;1695036;84;20405;-63
2022/07/05 08:12:51;;;;;;;;;;;;;;;31.32;38.86;155544.45;1693739;84;20525;-63
2022/07/05 08:15:20;;;;;;;;;;;;;;;31.34;41.09;155549.70;1699636;84;20170;-63
2022/07/05 08:21:30;;;;;;;;;;;;;;;31.34;39.52;155549.70;1701582;83;20173;-63
2022/07/05 08:23:00;;;;;;;;;;;;;;;31.33;39.19;155545.73;1701225;82;20185;-64
2022/07/05 08:25:27;;;;;;;;;;;;;;;31.30;39.54;155540.48;1709657;84;21263;-62
2022/07/05 08:27:54;;;;;;;;;;;;;;;31.29;39.84;155536.56;1711120;82;20157;-63
2022/07/05 08:30:21;;;;;;;;;;;;;;;31.27;39.50;155531.27;1719614;82;20184;-63
2022/07/05 08:32:47;;;;;;;;;;;;;;;31.29;39.99;155536.56;1710493;84;20233;-63
2022/07/05 08:35:14;;;;;;;;;;;;;;;31.29;40.96;155537.86;1721370;82;20458;-63
2022/07/05 08:37:41;;;;;;;;;;;;;;;31.32;40.92;155544.45;1730190;82;21108;-63
2022/07/05 08:40:08;;;;;;;;;;;;;;;31.31;39.37;155541.81;1721371;82;20433;-62
2022/07/05 08:42:36;;;;;;;;;;;;;;;31.32;39.24;155543.11;1706151;82;20195;-62
2022/07/05 08:45:03;;;;;;;;;;;;;;;31.34;38.22;155549.70;1716179;82;20176;-62
2022/07/05 08:47:30;;;;;;;;;;;;;;;31.40;37.14;155565.47;1757238;81;20427;-63
2022/07/05 08:49:57;;;;;;;;;;;;;;;31.44;39.14;155575.97;1761806;79;22101;-63
2022/07/05 08:52:23;;;;;;;;;;;;;;;31.48;41.37;155583.84;1757733;80;20190;-62
2022/07/05 08:54:53;;;;;;;;;;;;;;;31.48;38.29;155583.84;1741062;80;20435;-62
2022/07/05 08:57:20;;;;;;;;;;;;;;;31.50;37.86;155590.44;1772561;80;20483;-63
2022/07/05 08:59:47;;;;;;;;;;;;;;;31.53;39.00;155598.31;1762024;80;20187;-63
2022/07/05 09:02:16;;;;;;;;;;;;;;;31.55;41.03;155602.28;1745299;80;21226;-62
2022/07/05 09:04:45;;;;;;;;;;;;;;;31.58;40.36;155610.17;1741151;82;20172;-62
2022/07/05 09:07:14;;;;;;;;;;;;;;;31.62;39.08;155620.67;1775489;80;20166;-63
2022/07/05 09:09:43;;;;;;;;;;;;;;;31.69;40.50;155639.06;1777313;80;20223;-63
2022/07/05 09:12:12;;;;;;;;;;;;;;;31.70;40.86;155641.69;1739413;82;20099;-63
2022/07/05 09:14:39;;;;;;;;;;;;;;;31.68;39.38;155635.16;1742395;80;21178;-63
2022/07/05 09:17:06;;;;;;;;;;;;;;;31.64;38.30;155624.64;1772130;80;20210;-63
2022/07/05 09:19:34;;;;;;;;;;;;;;;31.60;36.22;155615.42;1777549;80;20211;-63
2022/07/05 09:22:04;;;;;;;;;;;;;;;31.61;39.17;155618.05;1778322;80;20464;-63
2022/07/05 09:24:32;;;;;;;;;;;;;;;31.60;42.28;155615.42;1762523;80;20235;-62
2022/07/05 09:27:03;;;;;;;;;;;;;;;31.56;42.38;155604.91;1723772;80;21093;-62
2022/07/05 09:29:30;;;;;;;;;;;;;;;31.54;41.27;155599.66;1731790;83;20183;-62
2022/07/05 09:31:58;;;;;;;;;;;;;;;31.53;37.82;155597.03;1731999;83;20206;-62
2022/07/05 09:34:25;;;;;;;;;;;;;;;31.57;37.56;155607.53;1731939;82;20192;-62
2022/07/05 09:36:56;;;;;;;;;;;;;;;31.57;41.28;155608.83;1732238;83;20420;-62
2022/07/05 09:39:35;;;;;;;;;;;;;;;31.55;39.18;155602.28;1770885;80;21141;-62
2022/07/05 09:42:23;;;;;;;;;;;;;;;31.53;36.27;155597.03;1753738;80;20226;-62
2022/07/05 09:44:51;;;;;;;;;;;;;;;31.53;33.59;155597.03;1721599;82;20206;-62
2022/07/05 09:47:19;;;;;;;;;;;;;;;31.56;37.15;155604.91;1740946;82;20388;-62
2022/07/05 09:49:53;;;;;;;;;;;;;;;31.58;39.46;155610.17;1740724;82;20302;-62
2022/07/05 09:52:34;;;;;;;;;;;;;;;31.56;40.50;155606.20;1740791;81;21063;-62
2022/07/05 09:55:08;;;;;;;;;;;;;;;31.55;40.08;155602.28;1731514;81;20399;-62
2022/07/05 09:57:39;;;;;;;;;;;;;;;31.59;41.54;155612.80;1728027;81;20182;-61
2022/07/05 10:00:08;;;;;;;;;;;;;;;31.59;41.71;155614.09;1742757;81;20156;-62
2022/07/05 10:02:41;;;;;;;;;;;;;;;31.59;41.77;155614.09;1740069;81;20189;-61
2022/07/05 10:05:10;;;;;;;;;;;;;;;31.56;41.29;155604.91;1730590;82;21253;-61
2022/07/05 10:07:40;;;;;;;;;;;;;;;31.53;40.37;155597.03;1715905;82;20178;-62
2022/07/05 10:10:09;;;;;;;;;;;;;;;31.51;41.75;155591.78;1739855;81;20194;-62
2022/07/05 10:12:37;;;;;;;;;;;;;;;31.51;42.14;155593.06;1710958;83;20449;-62
2022/07/05 10:15:05;;;;;;;;;;;;;;;31.57;42.21;155607.53;1767732;80;20129;-62
2022/07/05 10:17:34;;;;;;;;;;;;;;;31.59;41.10;155612.80;1750885;80;21112;-62
2022/07/05 10:20:00;;;;;;;;;;;;;;;31.60;40.92;155615.42;1763988;80;20160;-62
2022/07/05 10:22:27;;;;;;;;;;;;;;;31.58;43.25;155610.17;1771411;80;20185;-62
2022/07/05 10:24:54;;;;;;;;;;;;;;;31.53;44.45;155598.31;1761544;80;21317;-62
2022/07/05 10:27:21;;;;;;;;;;;;;;;31.49;44.17;155586.47;1764718;80;20207;-63
2022/07/05 10:29:48;;;;;;;;;;;;;;;31.46;43.21;155578.59;1762503;80;21190;-62
2022/07/05 10:32:16;;;;;;;;;;;;;;;31.42;43.22;155570.72;1760228;80;20157;-62
2022/07/05 10:34:46;;;;;;;;;;;;;;;31.41;42.30;155568.09;1769167;80;20204;-62
2022/07/05 10:37:12;;;;;;;;;;;;;;;31.42;42.37;155569.42;1769184;80;20172;-62
2022/07/05 10:39:38;;;;;;;;;;;;;;;31.37;41.76;155557.58;1766543;80;20192;-62
2022/07/05 10:42:06;;;;;;;;;;;;;;;31.32;41.74;155544.45;1761449;80;21204;-62
2022/07/05 10:44:34;;;;;;;;;;;;;;;31.27;42.15;155532.59;1762342;80;20201;-63
2022/07/05 10:47:11;;;;;;;;;;;;;;;31.25;42.55;155526.00;1764358;80;20112;-63
2022/07/05 10:49:38;;;;;;;;;;;;;;;31.22;42.54;155518.13;1771267;80;20454;-64
2022/07/05 10:52:07;;;;;;;;;;;;;;;31.16;42.32;155504.95;1746903;80;20522;-62
2022/07/05 10:54:34;;;;;;;;;;;;;;;31.09;41.91;155486.56;1762240;79;21102;-62
2022/07/05 10:57:23;;;;;;;;;;;;;;;31.08;40.94;155483.94;1745660;81;20422;-62
2022/07/05 11:00:08;;;;;;;;;;;;;;;31.04;40.64;155473.39;1765463;80;20134;-62
2022/07/05 11:02:35;;;;;;;;;;;;;;;30.97;40.38;155456.34;1765009;80;20176;-62
2022/07/05 11:05:02;;;;;;;;;;;;;;;30.94;40.35;155448.41;1760384;80;20239;-62
2022/07/05 11:07:58;;;;;;;;;;;;;;;30.96;39.76;155452.38;1772792;80;21234;-63
2022/07/05 11:10:25;;;;;;;;;;;;;;;30.94;38.81;155448.41;1769052;80;20173;-63
2022/07/05 11:12:52;;;;;;;;;;;;;;;30.89;38.66;155435.28;1768534;80;20211;-63
2022/07/05 11:15:19;;;;;;;;;;;;;;;30.87;39.94;155431.38;1773363;80;20170;-63
2022/07/05 11:17:46;;;;;;;;;;;;;;;30.89;39.92;155434.00;1772698;80;20176;-63
2022/07/05 11:20:15;;;;;;;;;;;;;;;30.90;39.45;155436.63;1779790;79;21114;-63
2022/07/05 11:23:06;;;;;;;;;;;;;;;30.89;38.29;155434.00;1772145;80;20197;-63
2022/07/05 11:25:36;;;;;;;;;;;;;;;30.91;37.79;155439.25;1760226;80;20416;-63
2022/07/05 11:28:15;;;;;;;;;;;;;;;30.92;36.63;155441.88;1731748;80;20599;-63
2022/07/05 11:30:50;;;;;;;;;;;;;;;30.94;35.74;155447.13;1766933;80;20200;-64
2022/07/05 11:33:30;;;;;;;;;;;;;;;30.94;35.01;155447.13;1756591;80;21190;-63
2022/07/05 11:35:57;;;;;;;;;;;;;;;30.96;34.72;155452.38;1766053;80;20265;-63
2022/07/05 11:38:24;;;;;;;;;;;;;;;30.97;34.10;155455.00;1768799;80;20190;-64
2022/07/05 11:40:53;;;;;;;;;;;;;;;31.00;33.98;155464.22;1758482;79;20524;-64
2022/07/05 11:43:28;;;;;;;;;;;;;;;31.04;34.75;155473.39;1760382;80;20116;-65
2022/07/05 11:45:58;;;;;;;;;;;;;;;31.04;34.66;155473.39;1746992;81;21105;-64
2022/07/05 11:48:27;;;;;;;;;;;;;;;31.04;33.97;155473.39;1742823;82;20201;-64
2022/07/05 11:50:54;;;;;;;;;;;;;;;31.03;33.27;155470.75;1743097;82;20166;-64
2022/07/05 11:53:29;;;;;;;;;;;;;;;31.06;32.22;155478.69;1771275;80;20226;-65
2022/07/05 11:55:59;;;;;;;;;;;;;;;31.04;31.76;155473.39;1739751;82;20411;-64
2022/07/05 11:58:32;;;;;;;;;;;;;;;31.06;31.53;155478.69;1714659;81;21209;-64
2022/07/05 12:01:01;;;;;;;;;;;;;;;31.06;31.50;155478.69;1716710;83;20173;-64
2022/07/05 12:03:28;;;;;;;;;;;;;;;31.08;31.69;155483.94;1740650;80;20200;-64
2022/07/05 12:05:55;;;;;;;;;;;;;;;31.10;31.95;155489.19;1764194;80;20202;-64
2022/07/05 12:08:24;;;;;;;;;;;;;;;31.13;32.59;155497.06;1750267;80;20514;-64
2022/07/05 12:13:51;;;;;;;;;;;;;;;31.14;32.09;155499.69;1761139;80;21221;-64
2022/07/05 12:16:19;;;;;;;;;;;;;;;31.13;31.64;155497.06;1758868;81;20141;-64
2022/07/05 12:19:01;;;;;;;;;;;;;;;31.12;31.34;155494.44;1761441;81;20532;-64
2022/07/05 12:21:25;;;;;;;;;;;;;;;31.10;31.22;155489.19;1753890;81;20214;-64
2022/07/05 12:23:53;;;;;;;;;;;;;;;31.08;31.54;155483.94;1761756;80;21147;-64
2022/07/05 12:26:20;;;;;;;;;;;;;;;31.08;31.10;155483.94;1765144;80;20152;-64
2022/07/05 12:28:47;;;;;;;;;;;;;;;31.06;31.03;155478.69;1766887;80;20204;-64
2022/07/05 12:31:21;;;;;;;;;;;;;;;31.06;30.82;155478.69;1763683;81;20165;-64
2022/07/05 12:33:50;;;;;;;;;;;;;;;31.06;30.72;155478.69;1766708;80;20208;-64
2022/07/05 12:36:19;;;;;;;;;;;;;;;31.10;31.18;155489.19;1768855;80;21138;-64
2022/07/05 12:38:45;;;;;;;;;;;;;;;31.10;31.86;155487.86;1776186;80;20243;-64
2022/07/05 12:41:14;;;;;;;;;;;;;;;31.05;32.15;155476.02;1772848;80;20193;-65
2022/07/05 12:43:52;;;;;;;;;;;;;;;31.01;32.78;155465.50;1729548;81;20559;-63
2022/07/05 12:46:19;;;;;;;;;;;;;;;31.03;33.37;155470.75;1775978;80;20149;-64
2022/07/05 12:48:51;;;;;;;;;;;;;;;31.09;32.43;155486.56;1759872;80;21921;-64